Time;durP1;ratioP1;P1;durP2;ratioP2;P2;SDS_P1;SDS_P2;PMS_P1;PMS_P2;Temp;Humidity;BMP_temperature;BMP_pressure;BME280_temperature;BME280_humidity;BME280_pressure;Samples;Min_cycle;Max_cycle;Signal;HPM_P1;HPM_P2
2023/12/22 00:02:01;;;;;;;31.90;4.60;;;8.20;99.90;;;;;;5032537;28;20457;-93
2023/12/22 00:04:26;;;;;;;40.67;6.20;;;8.20;99.90;;;;;;5032722;28;20522;-92
2023/12/22 00:06:52;;;;;;;36.03;4.75;;;8.30;99.90;;;;;;5032539;28;20032;-93
2023/12/22 00:09:18;;;;;;;40.20;6.03;;;8.20;99.90;;;;;;5032969;28;20044;-94
2023/12/22 00:11:44;;;;;;;37.03;5.03;;;8.30;99.90;;;;;;5032357;28;20040;-94
2023/12/22 00:14:09;;;;;;;32.20;4.80;;;8.30;99.90;;;;;;5032470;28;20052;-95
2023/12/22 00:16:37;;;;;;;38.65;4.68;;;8.30;99.90;;;;;;5032517;28;20026;-95
2023/12/22 00:19:03;;;;;;;34.25;4.68;;;8.30;99.90;;;;;;5032452;28;20532;-94
2023/12/22 00:21:29;;;;;;;31.98;4.78;;;8.30;99.90;;;;;;5032360;28;20025;-93
2023/12/22 00:23:54;;;;;;;26.98;3.75;;;8.30;99.90;;;;;;5032912;28;20033;-94
2023/12/22 00:26:20;;;;;;;25.05;3.72;;;8.30;99.90;;;;;;5032373;28;20025;-94
2023/12/22 00:28:46;;;;;;;35.83;4.10;;;8.30;99.90;;;;;;5032285;28;20031;-93
2023/12/22 00:31:12;;;;;;;36.38;3.88;;;8.30;99.90;;;;;;5032030;28;20552;-95
2023/12/22 00:33:38;;;;;;;24.25;4.50;;;8.30;99.90;;;;;;5030691;28;20056;-95
2023/12/22 00:36:04;;;;;;;19.75;4.30;;;8.30;99.90;;;;;;5032343;28;20068;-95
2023/12/22 00:38:30;;;;;;;33.42;4.68;;;8.30;99.90;;;;;;5032004;28;20025;-95
2023/12/22 00:40:56;;;;;;;25.48;3.85;;;8.30;99.90;;;;;;5031789;28;20013;-95
2023/12/22 00:43:22;;;;;;;32.33;4.35;;;8.30;99.90;;;;;;5031914;28;20096;-94
2023/12/22 00:45:48;;;;;;;41.97;5.05;;;8.30;99.90;;;;;;5032033;28;20091;-95
2023/12/22 00:48:13;;;;;;;29.58;4.30;;;8.30;99.90;;;;;;5031261;28;20056;-95
2023/12/22 00:50:39;;;;;;;36.72;4.70;;;8.30;99.90;;;;;;5031126;28;20026;-95
2023/12/22 00:53:04;;;;;;;31.83;5.28;;;8.30;99.90;;;;;;5031222;28;20029;-94
2023/12/22 00:55:30;;;;;;;25.55;3.47;;;8.30;99.90;;;;;;5033006;28;20112;-96
2023/12/22 00:57:56;;;;;;;21.33;3.30;;;8.30;99.90;;;;;;5035331;28;20028;-95
2023/12/22 01:00:22;;;;;;;24.55;3.17;;;8.30;99.90;;;;;;5035130;28;20159;-95
2023/12/22 01:02:47;;;;;;;39.95;4.72;;;8.20;99.90;;;;;;5033025;28;20037;-94
2023/12/22 01:05:13;;;;;;;37.40;5.45;;;8.20;99.90;;;;;;5033683;28;20033;-96
2023/12/22 01:07:39;;;;;;;27.73;5.28;;;8.10;99.90;;;;;;5036181;28;20030;-96
2023/12/22 01:10:05;;;;;;;32.97;4.97;;;8.10;99.90;;;;;;5044292;28;20109;-95
2023/12/22 01:12:31;;;;;;;19.33;3.50;;;8.00;99.90;;;;;;5041918;28;20045;-96
2023/12/22 01:14:57;;;;;;;17.17;3.10;;;8.00;99.90;;;;;;5047795;28;20036;-95
2023/12/22 01:17:23;;;;;;;17.27;2.60;;;8.00;99.90;;;;;;5042384;28;20049;-95
2023/12/22 01:19:49;;;;;;;15.10;2.58;;;8.00;99.90;;;;;;5049786;28;20029;-94
2023/12/22 01:22:14;;;;;;;21.02;2.70;;;8.00;99.90;;;;;;5054113;28;20048;-88
2023/12/22 01:24:43;;;;;;;15.73;2.40;;;8.00;99.90;;;;;;5054132;28;20077;-94
2023/12/22 01:27:09;;;;;;;19.58;2.25;;;8.00;99.90;;;;;;5052505;28;20040;-94
2023/12/22 01:29:35;;;;;;;22.42;3.05;;;8.00;99.90;;;;;;5052650;28;20009;-94
2023/12/22 01:32:01;;;;;;;20.08;2.40;;;8.00;99.90;;;;;;5052445;28;20046;-93
2023/12/22 01:34:28;;;;;;;14.13;2.17;;;8.00;99.90;;;;;;5054515;28;20024;-93
2023/12/22 01:36:55;;;;;;;12.75;1.88;;;8.00;99.90;;;;;;5052504;28;20039;-95
2023/12/22 01:39:21;;;;;;;14.98;2.65;;;8.00;99.90;;;;;;5054830;28;20033;-92
2023/12/22 01:41:46;;;;;;;10.80;1.80;;;8.00;99.90;;;;;;5056705;28;20026;-93
2023/12/22 01:44:12;;;;;;;15.38;2.30;;;8.00;99.90;;;;;;5056958;28;20029;-90
2023/12/22 01:46:39;;;;;;;4.15;1.00;;;8.00;99.90;;;;;;5055377;28;20821;-94
2023/12/22 01:49:07;;;;;;;5.68;1.10;;;8.00;99.90;;;;;;5048487;28;20036;-94
2023/12/22 01:51:36;;;;;;;5.65;0.90;;;8.00;99.90;;;;;;5051364;28;20029;-94
2023/12/22 01:54:02;;;;;;;7.43;0.90;;;8.00;99.90;;;;;;5052946;28;20033;-96
2023/12/22 01:56:28;;;;;;;2.58;1.00;;;8.10;99.90;;;;;;5044659;28;20088;-95
2023/12/22 01:58:58;;;;;;;3.85;0.80;;;8.10;99.90;;;;;;5043681;28;20029;-94
2023/12/22 02:01:25;;;;;;;6.40;0.90;;;8.10;99.90;;;;;;5043797;28;20014;-95
2023/12/22 02:03:54;;;;;;;3.30;0.77;;;8.10;99.90;;;;;;5049742;28;20029;-92
2023/12/22 02:06:20;;;;;;;3.90;0.98;;;8.10;99.90;;;;;;5049735;28;20060;-96
2023/12/22 02:08:50;;;;;;;3.25;0.65;;;8.10;99.90;;;;;;5045653;28;20055;-95
2023/12/22 02:11:16;;;;;;;3.80;0.68;;;8.20;99.90;;;;;;5049871;28;20055;-95
2023/12/22 02:13:45;;;;;;;3.67;0.70;;;8.20;99.90;;;;;;5049121;28;20081;-94
2023/12/22 02:16:34;;;;;;;4.85;0.65;;;8.20;99.90;;;;;;5053357;28;20022;-96
2023/12/22 02:19:12;;;;;;;2.00;0.55;;;8.20;99.90;;;;;;5048612;28;20030;-96
2023/12/22 02:22:02;;;;;;;2.97;0.50;;;8.20;99.90;;;;;;5047285;28;20041;-96
2023/12/22 02:24:30;;;;;;;5.00;0.60;;;8.20;99.90;;;;;;5046751;28;20076;-95
2023/12/22 02:27:03;;;;;;;3.33;1.08;;;8.20;99.90;;;;;;5046000;28;20112;-92
2023/12/22 02:29:35;;;;;;;3.30;0.90;;;8.30;99.90;;;;;;5043831;28;20036;-94
2023/12/22 02:32:06;;;;;;;2.65;0.50;;;8.30;99.90;;;;;;5043444;28;20046;-94
2023/12/22 02:34:37;;;;;;;1.70;0.40;;;8.30;99.90;;;;;;5041502;28;20030;-95
2023/12/22 02:37:07;;;;;;;5.32;0.47;;;8.30;99.90;;;;;;5041295;28;20022;-93
2023/12/22 02:39:33;;;;;;;6.43;1.40;;;8.30;99.90;;;;;;5037807;28;20025;-94
2023/12/22 02:41:59;;;;;;;2.30;0.30;;;8.30;99.90;;;;;;5038214;28;20567;-94
2023/12/22 02:44:26;;;;;;;0.65;0.17;;;8.40;99.90;;;;;;5039586;28;20025;-95
2023/12/22 02:46:52;;;;;;;1.40;0.40;;;8.40;99.90;;;;;;5041936;28;20040;-95
2023/12/22 02:49:18;;;;;;;2.50;0.32;;;8.40;99.90;;;;;;5045602;28;20057;-92
2023/12/22 02:51:44;;;;;;;2.08;0.20;;;8.40;99.90;;;;;;5053332;28;20038;-91
2023/12/22 02:54:10;;;;;;;0.32;0.20;;;8.40;99.90;;;;;;5052240;28;20048;-95
2023/12/22 02:56:36;;;;;;;0.77;0.28;;;8.50;99.90;;;;;;5047778;28;20026;-95
2023/12/22 02:59:02;;;;;;;2.38;0.13;;;8.40;99.90;;;;;;5040142;28;20029;-96
2023/12/22 03:01:27;;;;;;;0.00;0.00;;;8.40;99.90;;;;;;5036796;28;20052;-94
2023/12/22 03:03:53;;;;;;;0.52;0.20;;;8.40;99.90;;;;;;5037125;28;20499;-93
2023/12/22 03:06:19;;;;;;;0.30;0.00;;;8.40;99.90;;;;;;5039225;28;20033;-93
2023/12/22 03:08:44;;;;;;;0.47;0.10;;;8.40;99.90;;;;;;5038511;28;20052;-92
2023/12/22 03:11:10;;;;;;;0.30;0.10;;;8.40;99.90;;;;;;5049208;28;20094;-95
2023/12/22 03:13:36;;;;;;;0.80;0.10;;;8.40;99.90;;;;;;5036063;28;20037;-94
2023/12/22 03:16:01;;;;;;;0.15;0.10;;;8.40;99.90;;;;;;5036086;28;20053;-95
2023/12/22 03:18:27;;;;;;;3.50;1.45;;;8.40;99.90;;;;;;5036517;28;20068;-94
2023/12/22 03:20:53;;;;;;;0.30;0.08;;;8.40;99.90;;;;;;5039000;28;20099;-93
2023/12/22 03:23:18;;;;;;;0.38;0.10;;;8.40;99.90;;;;;;5049546;28;20044;-94
2023/12/22 03:25:44;;;;;;;0.00;0.00;;;8.30;99.90;;;;;;5047117;28;20052;-95
2023/12/22 03:28:10;;;;;;;0.22;0.10;;;8.30;99.90;;;;;;5035275;28;20033;-94
2023/12/22 03:30:37;;;;;;;0.20;0.20;;;8.30;99.90;;;;;;5039001;28;20073;-94
2023/12/22 03:33:03;;;;;;;1.02;0.45;;;8.30;99.90;;;;;;5042337;28;20041;-94
2023/12/22 03:35:29;;;;;;;0.00;0.00;;;8.30;99.90;;;;;;5054451;28;20024;-92
2023/12/22 03:37:54;;;;;;;1.98;0.88;;;8.30;99.90;;;;;;5054937;28;20014;-94
2023/12/22 03:40:20;;;;;;;0.43;0.10;;;8.40;99.90;;;;;;5050779;28;20048;-96
2023/12/22 03:42:46;;;;;;;2.05;0.10;;;8.40;99.90;;;;;;5045189;28;20059;-95
2023/12/22 03:45:12;;;;;;;0.20;0.20;;;8.40;99.90;;;;;;5040574;28;20101;-94
2023/12/22 03:47:37;;;;;;;1.33;0.30;;;8.50;99.90;;;;;;5041227;28;20048;-94
2023/12/22 03:50:03;;;;;;;0.32;0.10;;;8.50;99.90;;;;;;5054298;28;20037;-91
2023/12/22 03:52:29;;;;;;;2.92;0.20;;;8.50;99.90;;;;;;5055320;28;20017;-93
2023/12/22 03:54:54;;;;;;;0.60;0.17;;;8.60;99.90;;;;;;5055680;28;20044;-89
2023/12/22 03:57:20;;;;;;;3.28;0.20;;;8.60;99.90;;;;;;5056291;28;20010;-88
2023/12/22 03:59:46;;;;;;;1.45;0.13;;;8.60;99.90;;;;;;5057071;28;20025;-92
2023/12/22 04:02:11;;;;;;;3.92;0.60;;;8.60;99.90;;;;;;5056534;28;20113;-92
2023/12/22 04:04:38;;;;;;;1.08;0.50;;;8.60;99.90;;;;;;5056149;28;20092;-94
2023/12/22 04:07:04;;;;;;;0.35;0.20;;;8.70;99.90;;;;;;5053727;28;20025;-93
2023/12/22 04:09:29;;;;;;;1.38;0.30;;;8.80;99.90;;;;;;5044407;28;20052;-94
2023/12/22 04:11:56;;;;;;;2.60;0.40;;;8.80;99.90;;;;;;5042995;28;20044;-95
2023/12/22 04:14:22;;;;;;;2.17;0.45;;;8.80;99.90;;;;;;5040567;28;20029;-95
2023/12/22 04:16:47;;;;;;;2.67;0.40;;;8.90;99.90;;;;;;5045136;28;20040;-95
2023/12/22 04:19:13;;;;;;;3.45;0.45;;;8.90;99.90;;;;;;5046742;28;20029;-96
2023/12/22 04:21:39;;;;;;;3.45;0.40;;;8.90;99.90;;;;;;5049065;28;20029;-92
2023/12/22 04:24:05;;;;;;;2.13;0.45;;;8.90;99.90;;;;;;5056336;28;20024;-93
2023/12/22 04:26:31;;;;;;;2.28;0.30;;;9.00;99.90;;;;;;5047101;28;20096;-96
2023/12/22 04:28:56;;;;;;;1.33;0.30;;;9.00;99.90;;;;;;5049270;28;20029;-93
2023/12/22 04:31:23;;;;;;;5.68;0.55;;;9.00;99.90;;;;;;5051445;28;20026;-91
2023/12/22 04:33:49;;;;;;;2.58;0.45;;;9.00;99.90;;;;;;5050191;28;20026;-95
2023/12/22 04:36:17;;;;;;;3.03;0.40;;;9.00;99.90;;;;;;5054533;28;20021;-95
2023/12/22 04:38:43;;;;;;;4.93;0.90;;;8.90;99.90;;;;;;5052383;28;20056;-94
2023/12/22 04:41:08;;;;;;;5.97;0.75;;;8.90;99.90;;;;;;5049035;28;20029;-95
2023/12/22 04:43:35;;;;;;;2.90;0.50;;;8.90;99.90;;;;;;5046017;28;20033;-94
2023/12/22 04:46:00;;;;;;;5.38;0.70;;;8.90;99.90;;;;;;5043585;28;20084;-96
2023/12/22 04:48:26;;;;;;;2.53;0.30;;;8.90;99.90;;;;;;5049904;28;20013;-95
2023/12/22 04:50:52;;;;;;;2.00;0.30;;;8.90;99.90;;;;;;5055422;28;20109;-93
2023/12/22 04:53:19;;;;;;;1.20;0.28;;;9.00;99.90;;;;;;5053960;28;20044;-94
2023/12/22 04:55:45;;;;;;;3.20;0.38;;;9.00;99.90;;;;;;5049072;28;20028;-95
2023/12/22 04:58:11;;;;;;;2.35;0.80;;;9.00;99.90;;;;;;5046339;28;20033;-93
2023/12/22 05:00:38;;;;;;;2.08;0.50;;;9.00;99.90;;;;;;5040389;28;20033;-95
2023/12/22 05:03:04;;;;;;;1.75;0.57;;;9.00;99.90;;;;;;5042922;28;20073;-95
2023/12/22 05:05:30;;;;;;;1.20;0.65;;;9.00;99.90;;;;;;5044926;28;20055;-95
2023/12/22 05:07:56;;;;;;;1.38;0.85;;;9.00;99.90;;;;;;5042543;28;20039;-93
2023/12/22 05:10:21;;;;;;;3.22;0.30;;;9.00;99.90;;;;;;5042158;28;20085;-95
2023/12/22 05:12:47;;;;;;;1.15;0.35;;;9.00;99.90;;;;;;5046333;28;20082;-93
2023/12/22 05:15:13;;;;;;;3.95;0.47;;;9.00;99.90;;;;;;5048065;28;20025;-94
2023/12/22 05:17:40;;;;;;;3.15;0.47;;;9.00;99.90;;;;;;5046355;28;20045;-94
2023/12/22 05:20:06;;;;;;;2.38;0.70;;;9.00;99.90;;;;;;5041895;28;20064;-95
2023/12/22 05:22:32;;;;;;;3.58;0.77;;;9.00;99.90;;;;;;5040493;28;20047;-95
2023/12/22 05:24:58;;;;;;;3.45;0.75;;;9.10;99.90;;;;;;5042223;28;20025;-93
2023/12/22 05:27:24;;;;;;;3.60;0.95;;;9.10;99.90;;;;;;5050798;28;20018;-94
2023/12/22 05:29:50;;;;;;;6.07;0.88;;;9.00;99.90;;;;;;5054131;28;20037;-92
2023/12/22 05:32:16;;;;;;;4.22;0.70;;;9.10;99.90;;;;;;5053258;28;20068;-94
2023/12/22 05:34:42;;;;;;;3.67;0.70;;;9.00;99.90;;;;;;5071761;28;20017;-94
2023/12/22 05:37:07;;;;;;;3.15;0.63;;;9.00;99.90;;;;;;5074898;28;20029;-92
2023/12/22 05:39:33;;;;;;;10.23;0.68;;;9.00;99.90;;;;;;5068121;28;20032;-94
2023/12/22 05:41:59;;;;;;;4.05;0.70;;;9.00;99.90;;;;;;5071629;28;20033;-92
2023/12/22 05:44:29;;;;;;;3.17;0.80;;;9.00;99.90;;;;;;5069897;28;20068;-94
2023/12/22 05:46:55;;;;;;;6.82;0.85;;;8.90;99.90;;;;;;5073790;28;20029;-93
2023/12/22 05:49:21;;;;;;;7.95;0.63;;;8.90;99.90;;;;;;5075767;28;20040;-93
2023/12/22 05:51:47;;;;;;;4.28;0.75;;;8.90;99.90;;;;;;5074295;28;20017;-91
2023/12/22 05:54:13;;;;;;;4.53;0.60;;;8.90;99.90;;;;;;5075956;28;20043;-91
2023/12/22 05:56:38;;;;;;;3.33;0.80;;;8.90;99.90;;;;;;5072657;28;20503;-92
2023/12/22 05:59:05;;;;;;;1.65;0.52;;;9.00;99.90;;;;;;5070490;28;20030;-95
2023/12/22 06:01:31;;;;;;;7.07;0.73;;;9.00;99.90;;;;;;5074446;28;20021;-93
2023/12/22 06:03:57;;;;;;;6.82;0.90;;;8.90;99.90;;;;;;5063755;28;20056;-92
2023/12/22 06:06:23;;;;;;;1.38;0.32;;;9.00;99.90;;;;;;5051290;28;20052;-95
2023/12/22 06:08:48;;;;;;;3.13;0.82;;;8.90;99.90;;;;;;5049611;28;20029;-94
2023/12/22 06:11:14;;;;;;;2.95;0.98;;;8.90;99.90;;;;;;5050758;28;20121;-95
2023/12/22 06:13:40;;;;;;;9.13;1.23;;;8.90;99.90;;;;;;5050437;28;20021;-95
2023/12/22 06:16:06;;;;;;;5.53;0.63;;;9.00;99.90;;;;;;5048446;28;20033;-95
2023/12/22 06:18:31;;;;;;;4.28;0.85;;;8.90;99.90;;;;;;5054848;28;20036;-95
2023/12/22 06:20:57;;;;;;;6.78;0.90;;;9.00;99.90;;;;;;5046821;28;20029;-95
2023/12/22 06:23:23;;;;;;;3.00;0.77;;;9.00;99.90;;;;;;5041121;28;20111;-93
2023/12/22 06:25:48;;;;;;;4.35;0.77;;;8.90;99.90;;;;;;5045584;28;20026;-94
2023/12/22 06:28:16;;;;;;;5.88;1.08;;;8.90;99.90;;;;;;5050392;28;20036;-95
2023/12/22 06:30:43;;;;;;;1.70;0.50;;;8.90;99.90;;;;;;5049313;28;20017;-95
2023/12/22 06:33:08;;;;;;;4.50;0.30;;;8.90;99.90;;;;;;5050300;28;20053;-93
2023/12/22 06:35:34;;;;;;;0.65;0.25;;;8.90;99.90;;;;;;5042736;28;20029;-94
2023/12/22 06:38:03;;;;;;;2.47;0.22;;;8.80;99.90;;;;;;5035787;28;20026;-96
2023/12/22 06:40:29;;;;;;;2.60;0.45;;;8.80;99.90;;;;;;5040911;28;20080;-94
2023/12/22 06:42:55;;;;;;;0.57;0.22;;;8.80;99.90;;;;;;5043964;28;20041;-95
2023/12/22 06:45:21;;;;;;;0.70;0.10;;;8.70;99.90;;;;;;5043047;28;20052;-96
2023/12/22 06:47:47;;;;;;;0.10;0.00;;;8.70;99.90;;;;;;5048605;28;20026;-93
2023/12/22 06:50:13;;;;;;;1.77;0.13;;;8.60;99.90;;;;;;5051522;28;20087;-92
2023/12/22 06:52:39;;;;;;;2.28;0.13;;;8.50;99.90;;;;;;5052504;28;20101;-94
2023/12/22 06:55:05;;;;;;;0.68;0.30;;;8.50;99.90;;;;;;5044921;28;20029;-96
2023/12/22 06:57:31;;;;;;;1.30;0.20;;;8.50;99.90;;;;;;5048363;28;20059;-93
2023/12/22 06:59:56;;;;;;;3.15;0.30;;;8.40;99.90;;;;;;5047954;28;20096;-95
2023/12/22 07:02:22;;;;;;;0.45;0.15;;;8.40;99.90;;;;;;5054812;28;20045;-90
2023/12/22 07:05:26;;;;;;;1.88;0.30;;;8.30;99.90;;;;;;5057143;28;20061;-95
2023/12/22 07:07:51;;;;;;;4.72;0.93;;;8.30;99.90;;;;;;5049411;28;20025;-95
2023/12/22 07:10:17;;;;;;;3.33;0.90;;;8.40;99.90;;;;;;5047934;28;20051;-86
2023/12/22 07:12:43;;;;;;;5.85;0.82;;;8.40;99.90;;;;;;5054494;28;20022;-92
2023/12/22 07:15:08;;;;;;;8.35;1.08;;;8.50;99.90;;;;;;5055781;28;20097;-90
2023/12/22 07:17:35;;;;;;;6.90;0.80;;;8.50;99.90;;;;;;5056296;28;20021;-91
2023/12/22 07:20:02;;;;;;;6.72;0.98;;;8.50;99.90;;;;;;5054920;28;20045;-95
2023/12/22 07:22:29;;;;;;;6.97;1.38;;;8.60;99.90;;;;;;5056045;28;20038;-94
2023/12/22 07:24:55;;;;;;;10.30;1.58;;;8.70;99.90;;;;;;5055399;28;20048;-92
2023/12/22 07:27:21;;;;;;;11.30;2.13;;;8.70;99.90;;;;;;5057242;28;20067;-92
2023/12/22 07:29:47;;;;;;;17.33;3.03;;;8.70;99.90;;;;;;5048606;28;20017;-94
2023/12/22 07:32:15;;;;;;;13.45;2.53;;;8.80;99.90;;;;;;5054875;28;20068;-93
2023/12/22 07:34:41;;;;;;;10.88;1.30;;;8.80;99.90;;;;;;5055658;28;20503;-93
2023/12/22 07:37:06;;;;;;;13.90;2.40;;;8.90;99.90;;;;;;5054486;28;20034;-95
2023/12/22 07:39:32;;;;;;;10.15;1.60;;;8.90;99.90;;;;;;5053606;28;20081;-95
2023/12/22 07:41:58;;;;;;;9.48;1.50;;;8.90;99.90;;;;;;5046120;28;20504;-95
2023/12/22 07:44:24;;;;;;;4.93;1.38;;;9.00;99.90;;;;;;5055021;28;20116;-88
2023/12/22 07:46:59;;;;;;;9.75;1.25;;;9.00;99.90;;;;;;5052535;28;20029;-93
2023/12/22 07:49:25;;;;;;;5.63;0.82;;;9.00;99.90;;;;;;5048071;28;20029;-94
2023/12/22 07:51:52;;;;;;;10.10;1.13;;;8.90;99.90;;;;;;5048420;28;20068;-94
2023/12/22 07:54:21;;;;;;;2.70;0.75;;;8.90;99.90;;;;;;5053376;28;20097;-96
2023/12/22 07:56:46;;;;;;;7.80;1.55;;;8.80;99.90;;;;;;5053436;28;20013;-95
2023/12/22 07:59:12;;;;;;;8.93;1.27;;;8.80;99.90;;;;;;5053118;28;20028;-93
2023/12/22 08:01:38;;;;;;;6.15;1.00;;;8.80;99.90;;;;;;5052200;28;20034;-94
2023/12/22 08:04:04;;;;;;;3.53;0.80;;;8.80;99.90;;;;;;5051014;28;20021;-93
2023/12/22 08:06:30;;;;;;;2.42;0.63;;;8.80;99.90;;;;;;5053123;28;20104;-96
2023/12/22 08:08:56;;;;;;;5.05;1.10;;;8.80;99.90;;;;;;5055504;28;20021;-87
2023/12/22 08:11:24;;;;;;;5.72;1.50;;;8.80;99.90;;;;;;5055775;28;20037;-91
2023/12/22 08:13:49;;;;;;;13.30;1.95;;;8.90;99.90;;;;;;5052997;28;20045;-95
2023/12/22 08:16:15;;;;;;;6.25;1.00;;;8.90;99.90;;;;;;5052137;28;20044;-94
2023/12/22 08:18:41;;;;;;;10.82;1.50;;;9.00;99.90;;;;;;5054456;28;20036;-94
2023/12/22 08:21:13;;;;;;;13.13;1.92;;;9.00;99.90;;;;;;5051894;28;20017;-95
2023/12/22 08:23:39;;;;;;;9.43;1.30;;;9.00;99.90;;;;;;5051813;28;20061;-95
2023/12/22 08:26:05;;;;;;;13.00;1.98;;;9.00;99.90;;;;;;5052632;28;20026;-94
2023/12/22 08:28:30;;;;;;;7.10;1.90;;;9.00;99.90;;;;;;5054087;28;20112;-95
2023/12/22 08:30:56;;;;;;;12.15;1.65;;;9.00;99.90;;;;;;5053208;28;20033;-95
2023/12/22 08:33:22;;;;;;;10.52;1.65;;;9.00;99.90;;;;;;5054340;28;20105;-95
2023/12/22 08:35:47;;;;;;;14.32;1.58;;;9.00;99.90;;;;;;5053831;28;20029;-93
2023/12/22 08:38:13;;;;;;;8.93;1.30;;;8.90;99.90;;;;;;5054719;28;20053;-93
2023/12/22 08:40:39;;;;;;;7.25;1.17;;;9.00;99.90;;;;;;5052559;28;20030;-89
2023/12/22 08:43:06;;;;;;;7.32;1.88;;;8.90;99.90;;;;;;5053430;28;20045;-94
2023/12/22 08:45:32;;;;;;;17.33;2.40;;;8.90;99.90;;;;;;5054990;28;20033;-93
2023/12/22 08:47:57;;;;;;;10.52;1.88;;;8.90;99.90;;;;;;5056064;28;20029;-95
2023/12/22 08:50:23;;;;;;;10.32;1.58;;;8.90;99.90;;;;;;5060391;28;20101;-91
2023/12/22 08:52:49;;;;;;;9.43;1.55;;;8.90;99.90;;;;;;5059298;28;20041;-88
2023/12/22 08:55:16;;;;;;;6.05;1.27;;;8.90;99.90;;;;;;5051092;28;20013;-92
2023/12/22 08:57:41;;;;;;;9.02;1.42;;;8.90;99.90;;;;;;5040615;28;20049;-93
2023/12/22 09:00:07;;;;;;;14.82;1.75;;;8.90;99.90;;;;;;5050342;28;20018;-91
2023/12/22 09:02:33;;;;;;;6.93;1.60;;;8.90;99.90;;;;;;5057487;28;20061;-91
2023/12/22 09:04:59;;;;;;;5.75;1.48;;;8.90;99.90;;;;;;5058428;28;20005;-92
2023/12/22 09:07:24;;;;;;;8.40;2.08;;;8.90;99.90;;;;;;5049977;28;20033;-90
2023/12/22 09:09:50;;;;;;;11.65;1.55;;;8.90;99.90;;;;;;5058839;28;20030;-90
2023/12/22 09:12:16;;;;;;;8.35;1.50;;;9.00;99.90;;;;;;5060116;28;20043;-90
2023/12/22 09:14:42;;;;;;;9.20;1.30;;;9.00;99.90;;;;;;5060147;28;20017;-93
2023/12/22 09:17:10;;;;;;;16.77;3.25;;;8.90;99.90;;;;;;5058969;28;20056;-92
2023/12/22 09:19:38;;;;;;;13.38;1.50;;;9.00;99.90;;;;;;5058340;28;20014;-92
2023/12/22 09:22:04;;;;;;;4.40;1.17;;;9.00;99.90;;;;;;5057109;28;20033;-94
2023/12/22 09:24:36;;;;;;;12.27;1.60;;;9.00;99.90;;;;;;5055761;28;20033;-93
2023/12/22 09:27:02;;;;;;;12.40;1.45;;;8.90;99.90;;;;;;5052768;28;20038;-90
2023/12/22 09:29:35;;;;;;;4.80;0.95;;;9.00;99.90;;;;;;5058627;28;20018;-94
2023/12/22 09:32:01;;;;;;;14.02;1.40;;;9.00;99.90;;;;;;5056053;28;20057;-94
2023/12/22 09:34:29;;;;;;;10.32;1.50;;;9.00;99.90;;;;;;5058326;28;20096;-92
2023/12/22 09:36:58;;;;;;;16.45;1.95;;;9.10;99.90;;;;;;5059106;28;20018;-88
2023/12/22 09:39:24;;;;;;;12.27;1.42;;;9.00;99.90;;;;;;5058893;28;20017;-93
2023/12/22 09:41:50;;;;;;;11.77;1.70;;;9.00;99.90;;;;;;5053380;28;20025;-89
2023/12/22 09:44:21;;;;;;;12.13;1.65;;;9.00;99.90;;;;;;5057607;28;20034;-94
2023/12/22 09:46:50;;;;;;;14.55;2.83;;;9.00;99.90;;;;;;5054247;28;20025;-91
2023/12/22 09:49:21;;;;;;;11.48;2.10;;;9.10;99.90;;;;;;5056637;28;20026;-92
2023/12/22 09:51:47;;;;;;;8.05;1.15;;;9.10;99.90;;;;;;5056247;28;20013;-94
2023/12/22 09:54:14;;;;;;;10.85;1.90;;;9.10;99.90;;;;;;5057024;28;20029;-90
2023/12/22 09:56:42;;;;;;;13.00;1.63;;;9.10;99.90;;;;;;5058692;28;20088;-91
2023/12/22 09:59:12;;;;;;;8.52;1.48;;;9.10;99.90;;;;;;5056912;28;20045;-92
2023/12/22 10:01:48;;;;;;;10.60;1.33;;;9.10;99.90;;;;;;5051652;28;20093;-95
2023/12/22 10:04:14;;;;;;;5.05;0.98;;;9.10;99.90;;;;;;5046513;28;20029;-94
2023/12/22 10:06:41;;;;;;;12.38;1.77;;;9.00;99.90;;;;;;5050309;28;20044;-95
2023/12/22 10:09:08;;;;;;;17.05;2.38;;;9.10;99.90;;;;;;5055600;28;20044;-93
2023/12/22 10:11:36;;;;;;;15.07;2.22;;;9.00;99.90;;;;;;5051930;28;20018;-96
2023/12/22 10:14:02;;;;;;;13.43;2.17;;;9.00;99.90;;;;;;5046798;28;20021;-94
2023/12/22 10:16:28;;;;;;;3.75;0.90;;;9.10;99.90;;;;;;5043443;28;20022;-93
2023/12/22 10:18:54;;;;;;;3.70;0.90;;;9.10;99.90;;;;;;5050213;28;20097;-95
2023/12/22 10:21:20;;;;;;;14.18;2.83;;;9.10;99.90;;;;;;5049675;28;20017;-96
2023/12/22 10:23:45;;;;;;;9.93;2.60;;;9.10;99.90;;;;;;5047268;28;20048;-96
2023/12/22 10:26:12;;;;;;;9.93;1.70;;;9.10;99.90;;;;;;5045040;28;20018;-95
2023/12/22 10:28:37;;;;;;;6.57;2.33;;;9.10;99.90;;;;;;5049003;28;20033;-95
2023/12/22 10:31:07;;;;;;;20.42;3.38;;;9.10;99.90;;;;;;5050857;28;20098;-93
2023/12/22 10:33:33;;;;;;;6.30;1.25;;;9.10;99.90;;;;;;5050657;28;20049;-94
2023/12/22 10:36:03;;;;;;;8.48;1.35;;;9.10;99.90;;;;;;5040230;28;20060;-93
2023/12/22 10:38:35;;;;;;;5.70;1.05;;;9.10;99.90;;;;;;5036607;28;20084;-94
2023/12/22 10:41:05;;;;;;;9.85;1.60;;;9.20;99.90;;;;;;5035671;28;20022;-93
2023/12/22 10:43:36;;;;;;;11.98;1.63;;;9.20;99.90;;;;;;5036359;28;20080;-92
2023/12/22 10:46:03;;;;;;;4.85;1.05;;;9.20;99.90;;;;;;5046667;28;20036;-93
2023/12/22 10:48:29;;;;;;;9.35;1.38;;;9.20;99.90;;;;;;5054816;28;20033;-93
2023/12/22 10:50:54;;;;;;;10.20;1.20;;;9.20;99.90;;;;;;5054550;28;20009;-92
2023/12/22 10:53:23;;;;;;;8.57;1.05;;;9.10;99.90;;;;;;5054829;28;20036;-94
2023/12/22 10:55:50;;;;;;;12.55;1.20;;;9.20;99.90;;;;;;5052056;28;20014;-94
2023/12/22 10:58:16;;;;;;;8.05;1.42;;;9.20;99.90;;;;;;5054602;28;20033;-91
2023/12/22 11:00:45;;;;;;;7.28;0.73;;;9.20;99.90;;;;;;5055047;28;20033;-92
2023/12/22 11:03:16;;;;;;;7.55;1.33;;;9.20;99.90;;;;;;5049211;28;20046;-95
2023/12/22 11:05:46;;;;;;;6.15;1.20;;;9.20;99.90;;;;;;5049719;28;20025;-95
2023/12/22 11:08:12;;;;;;;6.13;0.80;;;9.20;99.90;;;;;;5051919;28;20026;-94
2023/12/22 11:10:46;;;;;;;7.68;1.33;;;9.20;99.90;;;;;;5051102;28;20109;-94
2023/12/22 11:13:13;;;;;;;9.25;1.35;;;9.20;99.90;;;;;;5039307;28;20049;-95
2023/12/22 11:15:40;;;;;;;5.15;1.38;;;9.20;99.90;;;;;;5052899;28;20085;-95
2023/12/22 11:18:07;;;;;;;10.93;1.73;;;9.20;99.90;;;;;;5051799;28;20093;-94
2023/12/22 11:20:34;;;;;;;7.35;1.30;;;9.20;99.90;;;;;;5054582;28;20026;-94
2023/12/22 11:23:01;;;;;;;3.88;0.93;;;9.20;99.90;;;;;;5053260;28;20107;-94
2023/12/22 11:25:30;;;;;;;6.72;2.20;;;9.30;99.90;;;;;;5053125;28;20206;-94
2023/12/22 11:27:58;;;;;;;7.40;1.20;;;9.20;99.90;;;;;;5051486;28;20013;-94
2023/12/22 11:30:25;;;;;;;8.10;1.27;;;9.20;99.90;;;;;;5045781;28;20014;-95
2023/12/22 11:32:54;;;;;;;11.15;1.20;;;9.20;99.90;;;;;;5044925;28;20166;-94
2023/12/22 11:35:23;;;;;;;10.70;1.52;;;9.30;99.90;;;;;;5044726;28;20075;-93
2023/12/22 11:37:49;;;;;;;3.83;0.80;;;9.30;99.90;;;;;;5038164;28;20488;-92
2023/12/22 11:40:15;;;;;;;8.57;1.10;;;9.30;99.90;;;;;;5054833;28;20009;-93
2023/12/22 11:42:45;;;;;;;6.72;1.05;;;9.30;99.90;;;;;;5050760;28;20026;-93
2023/12/22 11:45:12;;;;;;;8.07;1.77;;;9.30;99.90;;;;;;5045983;28;20036;-94
2023/12/22 11:47:38;;;;;;;15.07;1.52;;;9.40;99.90;;;;;;5048833;28;20049;-94
2023/12/22 11:50:08;;;;;;;9.30;1.40;;;9.40;99.90;;;;;;5054441;28;20097;-92
2023/12/22 11:52:35;;;;;;;7.78;1.85;;;9.40;99.90;;;;;;5050860;28;20048;-94
2023/12/22 11:55:00;;;;;;;11.05;1.85;;;9.50;99.90;;;;;;5051573;28;20093;-94
2023/12/22 11:57:36;;;;;;;8.68;1.63;;;9.50;99.90;;;;;;5054119;28;20212;-93
2023/12/22 12:00:07;;;;;;;4.68;0.90;;;9.50;99.90;;;;;;5053510;28;20037;-91
2023/12/22 12:02:35;;;;;;;2.95;0.77;;;9.50;99.90;;;;;;5056527;28;20037;-94
2023/12/22 12:05:01;;;;;;;9.15;1.40;;;9.50;99.90;;;;;;5054057;28;20018;-91
2023/12/22 12:07:50;;;;;;;6.65;1.17;;;9.50;99.90;;;;;;5054994;28;20034;-91
2023/12/22 12:10:52;;;;;;;7.15;1.65;;;9.40;99.90;;;;;;5051587;28;20029;-93
2023/12/22 12:13:23;;;;;;;10.18;1.88;;;9.40;99.90;;;;;;5042534;28;20033;-94
2023/12/22 12:15:51;;;;;;;9.82;1.65;;;9.50;99.90;;;;;;5046036;28;20020;-95
2023/12/22 12:18:27;;;;;;;10.88;1.30;;;9.50;99.90;;;;;;5046166;28;20037;-94
2023/12/22 12:20:53;;;;;;;7.10;1.13;;;9.50;99.90;;;;;;5042381;28;20468;-94
2023/12/22 12:23:19;;;;;;;12.73;1.60;;;9.50;99.90;;;;;;5042146;28;20145;-94
2023/12/22 12:25:44;;;;;;;7.13;1.65;;;9.50;99.90;;;;;;5044930;28;20030;-94
2023/12/22 12:28:10;;;;;;;7.97;1.40;;;9.50;99.90;;;;;;5039442;28;20037;-96
2023/12/22 12:30:38;;;;;;;9.65;0.85;;;9.40;99.90;;;;;;5047344;28;20060;-94
2023/12/22 12:33:07;;;;;;;5.70;1.23;;;9.40;99.90;;;;;;5052840;28;20050;-92
2023/12/22 12:35:34;;;;;;;17.00;1.80;;;9.40;99.90;;;;;;5049690;28;20022;-92
2023/12/22 12:38:00;;;;;;;4.57;1.45;;;9.40;99.90;;;;;;5042604;28;20441;-93
2023/12/22 12:40:32;;;;;;;4.47;0.93;;;9.30;99.90;;;;;;5041450;28;20075;-95
2023/12/22 12:43:05;;;;;;;8.40;1.33;;;9.30;99.90;;;;;;5044205;28;20551;-89
2023/12/22 12:45:32;;;;;;;11.57;2.05;;;9.30;99.90;;;;;;5050245;28;20052;-88
2023/12/22 12:48:03;;;;;;;5.60;1.60;;;9.30;99.90;;;;;;5049958;28;20025;-88
2023/12/22 12:50:31;;;;;;;6.63;0.93;;;9.30;99.90;;;;;;5051288;28;20039;-89
2023/12/22 12:52:57;;;;;;;13.85;1.73;;;9.30;99.90;;;;;;5050479;28;20033;-89